Terminal Aerodrome Forecast
Issued by NWS

Home | Current Version | Previous Version | Text Only | Print | Product List | Glossary On
Versions: 1 2 3 4 5 6 7 8 9 10 11 12 13 14 15 16 17 18 19 20 21
245
FTUS46 KMTR 180546
TAFSTS
TAF
KSTS 180546Z 1806/1906 15004KT 2SM BR SCT004 BKN050 OVC100
     FM180800 16005KT 1/2SM FG OVC004
      TEMPO 1808/1812 1SM -RA BR BKN004 OVC007
     FM181200 16010KT 2SM -RA BR OVC007
     FM182000 15015G25KT 2SM RA BR OVC010
     FM182300 24012KT 5SM SHRA BR OVC010
     FM190400 24004KT 4SM -SHRA BR OVC008=

USA.gov is the U.S. government's official web portal to all federal, state and local government web resources and services.